Takaoka, Japan
Current Conditions -  °F | °C
As of 1:34 PM on Sunday 21 Dec 2014 (Local Time) from RJNT Reporting Station
Thunderstorm Thunderstorm  
Wind Chill: 37°   Ceiling: 3000
Heat Index: 41°   Visibility: 6mi
Dew Point: 36°   Wind: 6mph
Humidity: 81%   Direction: 240°WSW
Pressure: 29.91"   Gusts: NA
Location:  36.75°N, 137.02°E
Report Text: RJNT 210434Z 24005KT 200V280 9999 -TSRA FEW008 SCT015 BKN030 FEW030CB 05/02 Q1013 RMK 1ST008 3CU015 6CU030 1CB030 A2992 FBL TS 20KM W MOV NE
Loading
Personal Weather Stations






























Interactive Weather Map New forecast layout! Learn more

10-Day Weather Forecast

Advertisements
Track Severe Weather on mobile